sensor_id;sensor_type;location;lat;lon;timestamp;P1;durP1;ratioP1;P2;durP2;ratioP2
7031;SDS011;3557;48.880;8.328;2022-09-03T00:00:35;2.25;;;2.05;;
7031;SDS011;3557;48.880;8.328;2022-09-03T00:03:07;4.50;;;2.30;;
7031;SDS011;3557;48.880;8.328;2022-09-03T00:05:40;5.20;;;2.10;;
7031;SDS011;3557;48.880;8.328;2022-09-03T00:08:15;3.83;;;2.20;;
7031;SDS011;3557;48.880;8.328;2022-09-03T00:10:48;3.00;;;2.05;;
7031;SDS011;3557;48.880;8.328;2022-09-03T00:13:23;2.75;;;2.20;;
7031;SDS011;3557;48.880;8.328;2022-09-03T00:15:56;2.78;;;2.13;;
7031;SDS011;3557;48.880;8.328;2022-09-03T00:18:25;2.40;;;2.20;;
7031;SDS011;3557;48.880;8.328;2022-09-03T00:20:57;4.20;;;2.00;;
7031;SDS011;3557;48.880;8.328;2022-09-03T00:23:32;3.67;;;2.22;;
7031;SDS011;3557;48.880;8.328;2022-09-03T00:26:06;4.38;;;2.28;;
7031;SDS011;3557;48.880;8.328;2022-09-03T00:28:48;4.45;;;2.40;;
7031;SDS011;3557;48.880;8.328;2022-09-03T00:31:24;2.30;;;2.10;;
7031;SDS011;3557;48.880;8.328;2022-09-03T00:33:57;4.63;;;2.20;;
7031;SDS011;3557;48.880;8.328;2022-09-03T00:36:31;2.97;;;2.30;;
7031;SDS011;3557;48.880;8.328;2022-09-03T00:39:07;2.78;;;2.20;;
7031;SDS011;3557;48.880;8.328;2022-09-03T00:41:37;2.80;;;2.40;;
7031;SDS011;3557;48.880;8.328;2022-09-03T00:44:22;5.22;;;2.60;;
7031;SDS011;3557;48.880;8.328;2022-09-03T00:47:03;5.35;;;2.28;;
7031;SDS011;3557;48.880;8.328;2022-09-03T00:49:41;3.60;;;2.33;;
7031;SDS011;3557;48.880;8.328;2022-09-03T00:52:24;2.50;;;2.30;;
7031;SDS011;3557;48.880;8.328;2022-09-03T00:55:07;3.22;;;2.42;;
7031;SDS011;3557;48.880;8.328;2022-09-03T00:57:48;5.60;;;2.20;;
7031;SDS011;3557;48.880;8.328;2022-09-03T01:00:38;3.38;;;2.30;;
7031;SDS011;3557;48.880;8.328;2022-09-03T01:03:08;2.40;;;2.20;;
7031;SDS011;3557;48.880;8.328;2022-09-03T01:05:47;2.72;;;2.15;;
7031;SDS011;3557;48.880;8.328;2022-09-03T01:08:42;2.50;;;2.30;;
7031;SDS011;3557;48.880;8.328;2022-09-03T01:11:27;2.55;;;2.15;;
7031;SDS011;3557;48.880;8.328;2022-09-03T01:14:09;3.15;;;2.28;;
7031;SDS011;3557;48.880;8.328;2022-09-03T01:16:54;2.65;;;2.30;;
7031;SDS011;3557;48.880;8.328;2022-09-03T01:19:39;5.13;;;2.15;;
7031;SDS011;3557;48.880;8.328;2022-09-03T01:22:52;5.22;;;2.28;;
7031;SDS011;3557;48.880;8.328;2022-09-03T01:25:48;2.28;;;2.08;;
7031;SDS011;3557;48.880;8.328;2022-09-03T01:28:25;3.28;;;2.13;;
7031;SDS011;3557;48.880;8.328;2022-09-03T01:31:10;3.60;;;2.15;;
7031;SDS011;3557;48.880;8.328;2022-09-03T01:33:47;5.05;;;2.35;;
7031;SDS011;3557;48.880;8.328;2022-09-03T01:36:23;2.70;;;2.47;;
7031;SDS011;3557;48.880;8.328;2022-09-03T01:39:03;2.88;;;2.13;;
7031;SDS011;3557;48.880;8.328;2022-09-03T01:41:34;3.30;;;2.17;;
7031;SDS011;3557;48.880;8.328;2022-09-03T01:44:34;5.43;;;2.30;;
7031;SDS011;3557;48.880;8.328;2022-09-03T01:47:17;2.40;;;2.20;;
7031;SDS011;3557;48.880;8.328;2022-09-03T01:49:58;3.17;;;2.20;;
7031;SDS011;3557;48.880;8.328;2022-09-03T01:52:36;3.53;;;2.20;;
7031;SDS011;3557;48.880;8.328;2022-09-03T01:55:15;2.30;;;2.10;;
7031;SDS011;3557;48.880;8.328;2022-09-03T01:57:55;2.40;;;2.10;;
7031;SDS011;3557;48.880;8.328;2022-09-03T02:00:28;2.60;;;2.40;;
7031;SDS011;3557;48.880;8.328;2022-09-03T02:02:59;2.38;;;2.17;;
7031;SDS011;3557;48.880;8.328;2022-09-03T02:05:31;2.60;;;2.40;;
7031;SDS011;3557;48.880;8.328;2022-09-03T02:07:59;3.20;;;2.13;;
7031;SDS011;3557;48.880;8.328;2022-09-03T02:10:30;2.42;;;2.17;;
7031;SDS011;3557;48.880;8.328;2022-09-03T02:13:04;2.33;;;2.10;;
7031;SDS011;3557;48.880;8.328;2022-09-03T02:15:35;1.90;;;1.80;;
7031;SDS011;3557;48.880;8.328;2022-09-03T02:18:13;2.45;;;1.90;;
7031;SDS011;3557;48.880;8.328;2022-09-03T02:20:45;6.32;;;2.08;;
7031;SDS011;3557;48.880;8.328;2022-09-03T02:23:14;2.10;;;1.90;;
7031;SDS011;3557;48.880;8.328;2022-09-03T02:25:43;1.90;;;1.80;;
7031;SDS011;3557;48.880;8.328;2022-09-03T02:28:14;2.90;;;2.30;;
7031;SDS011;3557;48.880;8.328;2022-09-03T02:30:42;4.43;;;2.38;;
7031;SDS011;3557;48.880;8.328;2022-09-03T02:33:10;4.80;;;2.00;;
7031;SDS011;3557;48.880;8.328;2022-09-03T02:35:38;2.42;;;2.22;;
7031;SDS011;3557;48.880;8.328;2022-09-03T02:38:09;4.43;;;2.20;;
7031;SDS011;3557;48.880;8.328;2022-09-03T02:40:37;2.40;;;2.20;;
7031;SDS011;3557;48.880;8.328;2022-09-03T02:43:05;2.50;;;2.28;;
7031;SDS011;3557;48.880;8.328;2022-09-03T02:45:37;2.97;;;2.17;;
7031;SDS011;3557;48.880;8.328;2022-09-03T02:48:12;3.35;;;2.10;;
7031;SDS011;3557;48.880;8.328;2022-09-03T02:50:41;2.13;;;2.00;;
7031;SDS011;3557;48.880;8.328;2022-09-03T02:53:08;6.45;;;2.38;;
7031;SDS011;3557;48.880;8.328;2022-09-03T02:55:35;2.60;;;2.38;;
7031;SDS011;3557;48.880;8.328;2022-09-03T02:58:02;2.20;;;2.00;;
7031;SDS011;3557;48.880;8.328;2022-09-03T03:03:58;3.70;;;2.10;;
7031;SDS011;3557;48.880;8.328;2022-09-03T03:06:25;2.30;;;2.10;;
7031;SDS011;3557;48.880;8.328;2022-09-03T03:08:52;2.30;;;2.10;;
7031;SDS011;3557;48.880;8.328;2022-09-03T03:11:20;2.22;;;2.03;;
7031;SDS011;3557;48.880;8.328;2022-09-03T03:13:49;2.72;;;1.90;;
7031;SDS011;3557;48.880;8.328;2022-09-03T03:16:16;3.00;;;2.08;;
7031;SDS011;3557;48.880;8.328;2022-09-03T03:18:44;2.22;;;2.03;;
7031;SDS011;3557;48.880;8.328;2022-09-03T03:21:13;2.55;;;2.35;;
7031;SDS011;3557;48.880;8.328;2022-09-03T03:23:43;3.13;;;2.28;;
7031;SDS011;3557;48.880;8.328;2022-09-03T03:26:11;2.40;;;2.20;;
7031;SDS011;3557;48.880;8.328;2022-09-03T03:28:42;2.30;;;2.10;;
7031;SDS011;3557;48.880;8.328;2022-09-03T03:31:11;4.07;;;2.20;;
7031;SDS011;3557;48.880;8.328;2022-09-03T03:33:41;4.22;;;2.20;;
7031;SDS011;3557;48.880;8.328;2022-09-03T03:36:09;4.93;;;2.20;;
7031;SDS011;3557;48.880;8.328;2022-09-03T03:38:40;2.50;;;2.30;;
7031;SDS011;3557;48.880;8.328;2022-09-03T03:41:09;2.20;;;1.95;;
7031;SDS011;3557;48.880;8.328;2022-09-03T03:43:38;2.10;;;1.90;;
7031;SDS011;3557;48.880;8.328;2022-09-03T03:46:05;2.10;;;1.90;;
7031;SDS011;3557;48.880;8.328;2022-09-03T03:48:32;2.17;;;1.92;;
7031;SDS011;3557;48.880;8.328;2022-09-03T03:51:00;2.70;;;1.88;;
7031;SDS011;3557;48.880;8.328;2022-09-03T03:53:30;3.17;;;2.00;;
7031;SDS011;3557;48.880;8.328;2022-09-03T03:55:57;2.40;;;2.05;;
7031;SDS011;3557;48.880;8.328;2022-09-03T03:58:26;2.08;;;1.88;;
7031;SDS011;3557;48.880;8.328;2022-09-03T04:00:54;3.50;;;2.03;;
7031;SDS011;3557;48.880;8.328;2022-09-03T04:03:21;2.65;;;2.13;;
7031;SDS011;3557;48.880;8.328;2022-09-03T04:05:53;2.72;;;1.95;;
7031;SDS011;3557;48.880;8.328;2022-09-03T04:08:21;2.42;;;2.10;;
7031;SDS011;3557;48.880;8.328;2022-09-03T04:10:50;2.00;;;1.90;;
7031;SDS011;3557;48.880;8.328;2022-09-03T04:13:17;2.45;;;2.00;;
7031;SDS011;3557;48.880;8.328;2022-09-03T04:15:44;2.40;;;2.20;;
7031;SDS011;3557;48.880;8.328;2022-09-03T04:18:11;2.45;;;2.25;;
7031;SDS011;3557;48.880;8.328;2022-09-03T04:20:38;3.10;;;2.10;;
7031;SDS011;3557;48.880;8.328;2022-09-03T04:23:05;2.50;;;2.30;;
7031;SDS011;3557;48.880;8.328;2022-09-03T04:25:33;2.35;;;2.15;;
7031;SDS011;3557;48.880;8.328;2022-09-03T04:28:01;3.45;;;2.20;;
7031;SDS011;3557;48.880;8.328;2022-09-03T04:30:29;3.70;;;2.42;;
7031;SDS011;3557;48.880;8.328;2022-09-03T04:32:56;4.20;;;2.30;;
7031;SDS011;3557;48.880;8.328;2022-09-03T04:35:24;2.70;;;2.30;;
7031;SDS011;3557;48.880;8.328;2022-09-03T04:37:56;2.55;;;2.35;;
7031;SDS011;3557;48.880;8.328;2022-09-03T04:40:23;4.03;;;2.30;;
7031;SDS011;3557;48.880;8.328;2022-09-03T04:42:55;2.55;;;2.10;;
7031;SDS011;3557;48.880;8.328;2022-09-03T04:45:24;2.42;;;2.22;;
7031;SDS011;3557;48.880;8.328;2022-09-03T04:47:56;3.85;;;2.28;;
7031;SDS011;3557;48.880;8.328;2022-09-03T04:50:24;2.53;;;2.00;;
7031;SDS011;3557;48.880;8.328;2022-09-03T04:52:58;2.20;;;2.00;;
7031;SDS011;3557;48.880;8.328;2022-09-03T04:55:26;2.30;;;1.98;;
7031;SDS011;3557;48.880;8.328;2022-09-03T04:57:53;2.35;;;2.05;;
7031;SDS011;3557;48.880;8.328;2022-09-03T05:00:20;3.58;;;2.10;;
7031;SDS011;3557;48.880;8.328;2022-09-03T05:02:49;2.63;;;2.10;;
7031;SDS011;3557;48.880;8.328;2022-09-03T05:05:16;2.30;;;2.10;;
7031;SDS011;3557;48.880;8.328;2022-09-03T05:07:44;2.45;;;2.15;;
7031;SDS011;3557;48.880;8.328;2022-09-03T05:10:12;4.15;;;2.30;;
7031;SDS011;3557;48.880;8.328;2022-09-03T05:12:45;3.28;;;2.10;;
7031;SDS011;3557;48.880;8.328;2022-09-03T05:15:14;2.28;;;2.05;;
7031;SDS011;3557;48.880;8.328;2022-09-03T05:17:41;2.75;;;2.25;;
7031;SDS011;3557;48.880;8.328;2022-09-03T05:20:09;2.50;;;2.30;;
7031;SDS011;3557;48.880;8.328;2022-09-03T05:22:36;2.65;;;2.22;;
7031;SDS011;3557;48.880;8.328;2022-09-03T05:25:03;2.47;;;2.20;;
7031;SDS011;3557;48.880;8.328;2022-09-03T05:27:31;2.53;;;2.03;;
7031;SDS011;3557;48.880;8.328;2022-09-03T05:29:58;2.38;;;2.17;;
7031;SDS011;3557;48.880;8.328;2022-09-03T05:32:25;2.60;;;2.03;;
7031;SDS011;3557;48.880;8.328;2022-09-03T05:34:55;2.25;;;2.03;;
7031;SDS011;3557;48.880;8.328;2022-09-03T05:37:23;2.25;;;1.95;;
7031;SDS011;3557;48.880;8.328;2022-09-03T05:39:50;2.97;;;2.17;;
7031;SDS011;3557;48.880;8.328;2022-09-03T05:42:18;3.85;;;2.10;;
7031;SDS011;3557;48.880;8.328;2022-09-03T05:44:46;3.92;;;2.25;;
7031;SDS011;3557;48.880;8.328;2022-09-03T05:47:13;2.50;;;2.20;;
7031;SDS011;3557;48.880;8.328;2022-09-03T05:49:41;4.75;;;2.50;;
7031;SDS011;3557;48.880;8.328;2022-09-03T05:52:08;2.33;;;2.13;;
7031;SDS011;3557;48.880;8.328;2022-09-03T05:54:36;3.17;;;2.30;;
7031;SDS011;3557;48.880;8.328;2022-09-03T05:57:04;2.05;;;1.85;;
7031;SDS011;3557;48.880;8.328;2022-09-03T05:59:31;3.08;;;2.13;;
7031;SDS011;3557;48.880;8.328;2022-09-03T06:01:58;2.53;;;2.15;;
7031;SDS011;3557;48.880;8.328;2022-09-03T06:04:25;4.50;;;2.42;;
7031;SDS011;3557;48.880;8.328;2022-09-03T06:06:52;4.22;;;2.35;;
7031;SDS011;3557;48.880;8.328;2022-09-03T06:09:20;5.22;;;2.65;;
7031;SDS011;3557;48.880;8.328;2022-09-03T06:11:49;2.50;;;2.30;;
7031;SDS011;3557;48.880;8.328;2022-09-03T06:14:18;3.90;;;2.47;;
7031;SDS011;3557;48.880;8.328;2022-09-03T06:16:46;3.08;;;2.30;;
7031;SDS011;3557;48.880;8.328;2022-09-03T06:19:17;2.88;;;2.50;;
7031;SDS011;3557;48.880;8.328;2022-09-03T06:21:44;4.47;;;2.60;;
7031;SDS011;3557;48.880;8.328;2022-09-03T06:24:13;3.35;;;2.40;;
7031;SDS011;3557;48.880;8.328;2022-09-03T06:26:42;2.65;;;2.35;;
7031;SDS011;3557;48.880;8.328;2022-09-03T06:29:11;2.83;;;2.40;;
7031;SDS011;3557;48.880;8.328;2022-09-03T06:31:39;3.00;;;2.70;;
7031;SDS011;3557;48.880;8.328;2022-09-03T06:34:06;5.88;;;2.67;;
7031;SDS011;3557;48.880;8.328;2022-09-03T06:36:33;2.97;;;2.55;;
7031;SDS011;3557;48.880;8.328;2022-09-03T06:39:00;3.35;;;2.22;;
7031;SDS011;3557;48.880;8.328;2022-09-03T06:41:28;4.28;;;2.30;;
7031;SDS011;3557;48.880;8.328;2022-09-03T06:43:59;3.00;;;2.63;;
7031;SDS011;3557;48.880;8.328;2022-09-03T06:46:30;2.47;;;2.28;;
7031;SDS011;3557;48.880;8.328;2022-09-03T06:48:59;2.60;;;2.40;;
7031;SDS011;3557;48.880;8.328;2022-09-03T06:51:27;2.58;;;2.30;;
7031;SDS011;3557;48.880;8.328;2022-09-03T06:53:58;3.80;;;2.45;;
7031;SDS011;3557;48.880;8.328;2022-09-03T06:56:27;4.80;;;2.58;;
7031;SDS011;3557;48.880;8.328;2022-09-03T06:58:54;3.00;;;2.60;;
7031;SDS011;3557;48.880;8.328;2022-09-03T07:01:23;3.45;;;2.45;;
7031;SDS011;3557;48.880;8.328;2022-09-03T07:03:54;2.90;;;2.60;;
7031;SDS011;3557;48.880;8.328;2022-09-03T07:06:24;2.78;;;2.50;;
7031;SDS011;3557;48.880;8.328;2022-09-03T07:08:53;2.63;;;2.42;;
7031;SDS011;3557;48.880;8.328;2022-09-03T07:11:22;3.47;;;2.63;;
7031;SDS011;3557;48.880;8.328;2022-09-03T07:13:53;4.22;;;2.35;;
7031;SDS011;3557;48.880;8.328;2022-09-03T07:16:22;3.00;;;2.70;;
7031;SDS011;3557;48.880;8.328;2022-09-03T07:18:51;2.65;;;2.45;;
7031;SDS011;3557;48.880;8.328;2022-09-03T07:21:21;3.60;;;2.40;;
7031;SDS011;3557;48.880;8.328;2022-09-03T07:23:50;2.60;;;2.40;;
7031;SDS011;3557;48.880;8.328;2022-09-03T07:26:19;3.28;;;2.40;;
7031;SDS011;3557;48.880;8.328;2022-09-03T07:28:47;9.20;;;2.70;;
7031;SDS011;3557;48.880;8.328;2022-09-03T07:31:17;4.45;;;2.50;;
7031;SDS011;3557;48.880;8.328;2022-09-03T07:33:46;2.50;;;2.30;;
7031;SDS011;3557;48.880;8.328;2022-09-03T07:36:15;3.55;;;2.70;;
7031;SDS011;3557;48.880;8.328;2022-09-03T07:38:43;4.93;;;2.72;;
7031;SDS011;3557;48.880;8.328;2022-09-03T07:41:10;4.70;;;3.20;;
7031;SDS011;3557;48.880;8.328;2022-09-03T07:43:39;5.63;;;3.20;;
7031;SDS011;3557;48.880;8.328;2022-09-03T07:46:10;9.40;;;3.45;;
7031;SDS011;3557;48.880;8.328;2022-09-03T07:48:38;5.85;;;3.22;;
7031;SDS011;3557;48.880;8.328;2022-09-03T07:51:05;5.97;;;3.22;;
7031;SDS011;3557;48.880;8.328;2022-09-03T07:53:34;4.80;;;3.20;;
7031;SDS011;3557;48.880;8.328;2022-09-03T07:56:02;4.38;;;3.22;;
7031;SDS011;3557;48.880;8.328;2022-09-03T07:58:31;4.43;;;3.67;;
7031;SDS011;3557;48.880;8.328;2022-09-03T08:01:02;6.65;;;3.83;;
7031;SDS011;3557;48.880;8.328;2022-09-03T08:03:32;5.35;;;3.83;;
7031;SDS011;3557;48.880;8.328;2022-09-03T08:06:00;29.90;;;5.30;;
7031;SDS011;3557;48.880;8.328;2022-09-03T08:08:28;25.77;;;4.70;;
7031;SDS011;3557;48.880;8.328;2022-09-03T08:11:03;100.30;;;10.88;;
7031;SDS011;3557;48.880;8.328;2022-09-03T08:13:34;6.68;;;3.15;;
7031;SDS011;3557;48.880;8.328;2022-09-03T08:16:01;11.55;;;3.97;;
7031;SDS011;3557;48.880;8.328;2022-09-03T08:18:29;6.53;;;3.05;;
7031;SDS011;3557;48.880;8.328;2022-09-03T08:20:59;3.13;;;2.88;;
7031;SDS011;3557;48.880;8.328;2022-09-03T08:23:27;4.10;;;2.97;;
7031;SDS011;3557;48.880;8.328;2022-09-03T08:25:56;4.07;;;3.03;;
7031;SDS011;3557;48.880;8.328;2022-09-03T08:28:26;4.30;;;2.90;;
7031;SDS011;3557;48.880;8.328;2022-09-03T08:30:54;3.40;;;3.10;;
7031;SDS011;3557;48.880;8.328;2022-09-03T08:33:21;3.92;;;3.33;;
7031;SDS011;3557;48.880;8.328;2022-09-03T08:36:02;4.93;;;2.67;;
7031;SDS011;3557;48.880;8.328;2022-09-03T08:38:31;5.88;;;2.55;;
7031;SDS011;3557;48.880;8.328;2022-09-03T08:41:02;2.70;;;2.50;;
7031;SDS011;3557;48.880;8.328;2022-09-03T08:43:37;44.38;;;4.78;;
7031;SDS011;3557;48.880;8.328;2022-09-03T08:46:20;6.03;;;2.40;;
7031;SDS011;3557;48.880;8.328;2022-09-03T08:48:59;2.17;;;1.98;;
7031;SDS011;3557;48.880;8.328;2022-09-03T08:51:26;2.53;;;2.25;;
7031;SDS011;3557;48.880;8.328;2022-09-03T08:53:55;4.70;;;2.20;;
7031;SDS011;3557;48.880;8.328;2022-09-03T08:56:25;4.82;;;2.03;;
7031;SDS011;3557;48.880;8.328;2022-09-03T08:58:55;17.98;;;3.13;;
7031;SDS011;3557;48.880;8.328;2022-09-03T09:01:26;1.70;;;1.60;;
7031;SDS011;3557;48.880;8.328;2022-09-03T09:04:04;29.08;;;3.60;;
7031;SDS011;3557;48.880;8.328;2022-09-03T09:06:47;12.18;;;2.15;;
7031;SDS011;3557;48.880;8.328;2022-09-03T09:09:22;1.88;;;1.77;;
7031;SDS011;3557;48.880;8.328;2022-09-03T09:11:59;2.60;;;1.98;;
7031;SDS011;3557;48.880;8.328;2022-09-03T09:14:38;1.85;;;1.75;;
7031;SDS011;3557;48.880;8.328;2022-09-03T09:17:19;1.70;;;1.60;;
7031;SDS011;3557;48.880;8.328;2022-09-03T09:20:00;2.05;;;1.92;;
7031;SDS011;3557;48.880;8.328;2022-09-03T09:22:36;2.00;;;1.90;;
7031;SDS011;3557;48.880;8.328;2022-09-03T09:25:07;2.10;;;1.83;;
7031;SDS011;3557;48.880;8.328;2022-09-03T09:27:40;2.03;;;1.92;;
7031;SDS011;3557;48.880;8.328;2022-09-03T09:30:17;2.63;;;2.33;;
7031;SDS011;3557;48.880;8.328;2022-09-03T09:32:45;2.97;;;2.20;;
7031;SDS011;3557;48.880;8.328;2022-09-03T09:35:12;3.45;;;2.50;;
7031;SDS011;3557;48.880;8.328;2022-09-03T09:37:47;2.80;;;2.22;;
7031;SDS011;3557;48.880;8.328;2022-09-03T09:40:26;3.85;;;2.20;;
7031;SDS011;3557;48.880;8.328;2022-09-03T09:43:04;2.60;;;2.40;;
7031;SDS011;3557;48.880;8.328;2022-09-03T09:45:36;3.03;;;2.08;;
7031;SDS011;3557;48.880;8.328;2022-09-03T09:48:14;2.88;;;2.25;;
7031;SDS011;3557;48.880;8.328;2022-09-03T09:50:46;2.20;;;2.00;;
7031;SDS011;3557;48.880;8.328;2022-09-03T09:53:15;2.50;;;2.30;;
7031;SDS011;3557;48.880;8.328;2022-09-03T09:55:52;3.08;;;2.20;;
7031;SDS011;3557;48.880;8.328;2022-09-03T09:58:22;2.60;;;2.40;;
7031;SDS011;3557;48.880;8.328;2022-09-03T10:01:03;2.42;;;2.22;;
7031;SDS011;3557;48.880;8.328;2022-09-03T10:03:39;2.20;;;2.00;;
7031;SDS011;3557;48.880;8.328;2022-09-03T10:06:16;2.25;;;2.05;;
7031;SDS011;3557;48.880;8.328;2022-09-03T10:09:04;2.45;;;2.20;;
7031;SDS011;3557;48.880;8.328;2022-09-03T10:11:34;2.53;;;2.33;;
7031;SDS011;3557;48.880;8.328;2022-09-03T10:14:04;4.35;;;2.30;;
7031;SDS011;3557;48.880;8.328;2022-09-03T10:16:40;4.57;;;2.42;;
7031;SDS011;3557;48.880;8.328;2022-09-03T10:19:17;2.40;;;2.20;;
7031;SDS011;3557;48.880;8.328;2022-09-03T10:21:48;3.30;;;2.30;;
7031;SDS011;3557;48.880;8.328;2022-09-03T10:24:40;5.18;;;2.30;;
7031;SDS011;3557;48.880;8.328;2022-09-03T10:27:17;2.83;;;2.17;;
7031;SDS011;3557;48.880;8.328;2022-09-03T10:29:46;2.40;;;2.20;;
7031;SDS011;3557;48.880;8.328;2022-09-03T10:32:24;4.13;;;2.35;;
7031;SDS011;3557;48.880;8.328;2022-09-03T10:35:02;3.05;;;2.20;;
7031;SDS011;3557;48.880;8.328;2022-09-03T10:37:37;3.20;;;2.15;;
7031;SDS011;3557;48.880;8.328;2022-09-03T10:40:11;3.60;;;2.30;;
7031;SDS011;3557;48.880;8.328;2022-09-03T10:42:57;2.35;;;2.15;;
7031;SDS011;3557;48.880;8.328;2022-09-03T10:45:36;2.58;;;2.38;;
7031;SDS011;3557;48.880;8.328;2022-09-03T10:48:27;2.53;;;2.33;;
7031;SDS011;3557;48.880;8.328;2022-09-03T10:51:16;3.50;;;2.40;;
7031;SDS011;3557;48.880;8.328;2022-09-03T10:53:54;2.50;;;2.30;;
7031;SDS011;3557;48.880;8.328;2022-09-03T10:56:42;3.97;;;2.20;;
7031;SDS011;3557;48.880;8.328;2022-09-03T10:59:25;4.07;;;2.45;;
7031;SDS011;3557;48.880;8.328;2022-09-03T11:02:09;2.40;;;2.20;;
7031;SDS011;3557;48.880;8.328;2022-09-03T11:05:04;2.97;;;2.50;;
7031;SDS011;3557;48.880;8.328;2022-09-03T11:07:35;3.38;;;2.25;;
7031;SDS011;3557;48.880;8.328;2022-09-03T11:10:11;3.58;;;2.30;;
7031;SDS011;3557;48.880;8.328;2022-09-03T11:12:44;2.47;;;2.28;;
7031;SDS011;3557;48.880;8.328;2022-09-03T11:15:18;2.30;;;2.10;;
7031;SDS011;3557;48.880;8.328;2022-09-03T11:17:53;3.22;;;2.20;;
7031;SDS011;3557;48.880;8.328;2022-09-03T11:20:26;2.33;;;2.13;;
7031;SDS011;3557;48.880;8.328;2022-09-03T11:22:54;2.58;;;2.13;;
7031;SDS011;3557;48.880;8.328;2022-09-03T11:25:26;2.00;;;1.80;;
7031;SDS011;3557;48.880;8.328;2022-09-03T11:28:02;1.80;;;1.70;;
7031;SDS011;3557;48.880;8.328;2022-09-03T11:30:39;2.08;;;1.88;;
7031;SDS011;3557;48.880;8.328;2022-09-03T11:33:24;2.15;;;1.80;;
7031;SDS011;3557;48.880;8.328;2022-09-03T11:35:56;2.05;;;1.70;;
7031;SDS011;3557;48.880;8.328;2022-09-03T11:38:26;2.20;;;2.00;;
7031;SDS011;3557;48.880;8.328;2022-09-03T11:41:00;2.22;;;1.90;;
7031;SDS011;3557;48.880;8.328;2022-09-03T11:43:38;2.83;;;1.95;;
7031;SDS011;3557;48.880;8.328;2022-09-03T11:46:07;2.15;;;1.90;;
7031;SDS011;3557;48.880;8.328;2022-09-03T11:48:41;2.30;;;2.00;;
7031;SDS011;3557;48.880;8.328;2022-09-03T11:51:28;4.47;;;2.20;;
7031;SDS011;3557;48.880;8.328;2022-09-03T11:54:00;2.55;;;2.03;;
7031;SDS011;3557;48.880;8.328;2022-09-03T11:56:30;2.33;;;2.00;;
7031;SDS011;3557;48.880;8.328;2022-09-03T11:59:04;3.95;;;2.20;;
7031;SDS011;3557;48.880;8.328;2022-09-03T12:01:49;2.40;;;2.05;;
7031;SDS011;3557;48.880;8.328;2022-09-03T12:04:20;2.17;;;1.88;;
7031;SDS011;3557;48.880;8.328;2022-09-03T12:06:59;5.57;;;2.10;;
7031;SDS011;3557;48.880;8.328;2022-09-03T12:09:51;4.72;;;1.88;;
7031;SDS011;3557;48.880;8.328;2022-09-03T12:12:39;2.17;;;1.98;;
7031;SDS011;3557;48.880;8.328;2022-09-03T12:15:23;2.58;;;1.80;;
7031;SDS011;3557;48.880;8.328;2022-09-03T12:18:07;2.15;;;2.00;;
7031;SDS011;3557;48.880;8.328;2022-09-03T12:20:47;2.20;;;2.00;;
7031;SDS011;3557;48.880;8.328;2022-09-03T12:23:28;2.20;;;2.00;;
7031;SDS011;3557;48.880;8.328;2022-09-03T12:25:58;2.90;;;2.10;;
7031;SDS011;3557;48.880;8.328;2022-09-03T12:28:29;2.60;;;2.40;;
7031;SDS011;3557;48.880;8.328;2022-09-03T12:31:04;2.25;;;2.05;;
7031;SDS011;3557;48.880;8.328;2022-09-03T12:33:46;6.47;;;2.13;;
7031;SDS011;3557;48.880;8.328;2022-09-03T12:36:15;2.72;;;2.22;;
7031;SDS011;3557;48.880;8.328;2022-09-03T12:38:44;2.17;;;1.98;;
7031;SDS011;3557;48.880;8.328;2022-09-03T12:41:22;3.63;;;2.28;;
7031;SDS011;3557;48.880;8.328;2022-09-03T12:43:52;2.75;;;2.30;;
7031;SDS011;3557;48.880;8.328;2022-09-03T12:46:22;2.65;;;2.10;;
7031;SDS011;3557;48.880;8.328;2022-09-03T12:48:54;2.35;;;2.15;;
7031;SDS011;3557;48.880;8.328;2022-09-03T12:51:29;2.63;;;1.80;;
7031;SDS011;3557;48.880;8.328;2022-09-03T12:53:59;3.28;;;1.77;;
7031;SDS011;3557;48.880;8.328;2022-09-03T12:56:29;1.60;;;1.50;;
7031;SDS011;3557;48.880;8.328;2022-09-03T12:59:00;1.60;;;1.50;;
7031;SDS011;3557;48.880;8.328;2022-09-03T13:01:34;3.08;;;1.50;;
7031;SDS011;3557;48.880;8.328;2022-09-03T13:04:08;2.67;;;1.35;;
7031;SDS011;3557;48.880;8.328;2022-09-03T13:06:44;1.33;;;1.23;;
7031;SDS011;3557;48.880;8.328;2022-09-03T13:09:21;1.40;;;1.30;;
7031;SDS011;3557;48.880;8.328;2022-09-03T13:11:54;1.45;;;1.35;;
7031;SDS011;3557;48.880;8.328;2022-09-03T13:14:23;1.42;;;1.33;;
7031;SDS011;3557;48.880;8.328;2022-09-03T13:17:01;1.40;;;1.30;;
7031;SDS011;3557;48.880;8.328;2022-09-03T13:20:06;1.17;;;1.17;;
7031;SDS011;3557;48.880;8.328;2022-09-03T13:22:54;1.10;;;1.10;;
7031;SDS011;3557;48.880;8.328;2022-09-03T13:25:39;1.35;;;1.25;;
7031;SDS011;3557;48.880;8.328;2022-09-03T13:28:20;1.27;;;1.23;;
7031;SDS011;3557;48.880;8.328;2022-09-03T13:31:06;1.98;;;1.60;;
7031;SDS011;3557;48.880;8.328;2022-09-03T13:33:48;1.48;;;1.38;;
7031;SDS011;3557;48.880;8.328;2022-09-03T13:36:20;1.17;;;1.17;;
7031;SDS011;3557;48.880;8.328;2022-09-03T13:38:52;2.15;;;1.25;;
7031;SDS011;3557;48.880;8.328;2022-09-03T13:41:27;1.10;;;1.10;;
7031;SDS011;3557;48.880;8.328;2022-09-03T13:44:05;1.10;;;1.10;;
7031;SDS011;3557;48.880;8.328;2022-09-03T13:46:40;1.77;;;1.30;;
7031;SDS011;3557;48.880;8.328;2022-09-03T13:49:15;1.30;;;1.20;;
7031;SDS011;3557;48.880;8.328;2022-09-03T13:52:12;1.38;;;1.20;;
7031;SDS011;3557;48.880;8.328;2022-09-03T13:54:48;1.10;;;1.10;;
7031;SDS011;3557;48.880;8.328;2022-09-03T13:57:26;2.67;;;1.10;;
7031;SDS011;3557;48.880;8.328;2022-09-03T14:00:02;2.05;;;1.10;;
7031;SDS011;3557;48.880;8.328;2022-09-03T14:02:44;3.92;;;1.25;;
7031;SDS011;3557;48.880;8.328;2022-09-03T14:05:18;1.10;;;1.10;;
7031;SDS011;3557;48.880;8.328;2022-09-03T14:08:03;1.50;;;1.20;;
7031;SDS011;3557;48.880;8.328;2022-09-03T14:10:44;3.17;;;1.40;;
7031;SDS011;3557;48.880;8.328;2022-09-03T14:13:28;1.55;;;1.10;;
7031;SDS011;3557;48.880;8.328;2022-09-03T14:16:13;1.38;;;1.13;;
7031;SDS011;3557;48.880;8.328;2022-09-03T14:18:51;1.10;;;1.10;;
7031;SDS011;3557;48.880;8.328;2022-09-03T14:21:23;0.93;;;0.88;;
7031;SDS011;3557;48.880;8.328;2022-09-03T14:23:58;1.10;;;1.00;;
7031;SDS011;3557;48.880;8.328;2022-09-03T14:26:31;1.00;;;1.00;;
7031;SDS011;3557;48.880;8.328;2022-09-03T14:29:02;1.10;;;1.00;;
7031;SDS011;3557;48.880;8.328;2022-09-03T14:32:01;0.95;;;0.90;;
7031;SDS011;3557;48.880;8.328;2022-09-03T14:37:49;38.72;;;1.90;;
7031;SDS011;3557;48.880;8.328;2022-09-03T14:40:51;14.88;;;1.55;;
7031;SDS011;3557;48.880;8.328;2022-09-03T14:46:27;1.10;;;1.00;;
7031;SDS011;3557;48.880;8.328;2022-09-03T14:49:16;0.98;;;0.90;;
7031;SDS011;3557;48.880;8.328;2022-09-03T14:51:56;0.95;;;0.95;;
7031;SDS011;3557;48.880;8.328;2022-09-03T14:54:42;1.17;;;1.08;;
7031;SDS011;3557;48.880;8.328;2022-09-03T15:00:46;1.33;;;1.23;;
7031;SDS011;3557;48.880;8.328;2022-09-03T15:03:26;1.23;;;1.13;;
7031;SDS011;3557;48.880;8.328;2022-09-03T15:06:10;1.45;;;1.00;;
7031;SDS011;3557;48.880;8.328;2022-09-03T15:08:52;1.05;;;1.00;;
7031;SDS011;3557;48.880;8.328;2022-09-03T15:11:42;2.53;;;1.15;;
7031;SDS011;3557;48.880;8.328;2022-09-03T15:14:17;5.18;;;1.30;;
7031;SDS011;3557;48.880;8.328;2022-09-03T15:16:53;1.75;;;1.10;;
7031;SDS011;3557;48.880;8.328;2022-09-03T15:19:35;1.08;;;1.05;;
7031;SDS011;3557;48.880;8.328;2022-09-03T15:22:26;4.82;;;1.05;;
7031;SDS011;3557;48.880;8.328;2022-09-03T15:25:10;2.67;;;1.00;;
7031;SDS011;3557;48.880;8.328;2022-09-03T15:27:49;1.00;;;1.00;;
7031;SDS011;3557;48.880;8.328;2022-09-03T15:30:38;1.25;;;1.10;;
7031;SDS011;3557;48.880;8.328;2022-09-03T15:33:17;1.10;;;1.10;;
7031;SDS011;3557;48.880;8.328;2022-09-03T15:36:02;1.20;;;1.00;;
7031;SDS011;3557;48.880;8.328;2022-09-03T15:38:42;2.03;;;1.10;;
7031;SDS011;3557;48.880;8.328;2022-09-03T15:41:27;1.65;;;1.10;;
7031;SDS011;3557;48.880;8.328;2022-09-03T15:44:05;1.20;;;1.10;;
7031;SDS011;3557;48.880;8.328;2022-09-03T15:49:33;2.70;;;1.20;;
7031;SDS011;3557;48.880;8.328;2022-09-03T15:52:25;1.20;;;1.10;;
7031;SDS011;3557;48.880;8.328;2022-09-03T15:55:00;1.23;;;1.13;;
7031;SDS011;3557;48.880;8.328;2022-09-03T15:57:36;1.27;;;1.17;;
7031;SDS011;3557;48.880;8.328;2022-09-03T16:00:14;1.13;;;1.05;;
7031;SDS011;3557;48.880;8.328;2022-09-03T16:02:45;1.40;;;1.10;;
7031;SDS011;3557;48.880;8.328;2022-09-03T16:05:17;1.48;;;1.10;;
7031;SDS011;3557;48.880;8.328;2022-09-03T16:07:56;4.20;;;1.20;;
7031;SDS011;3557;48.880;8.328;2022-09-03T16:10:35;1.17;;;1.08;;
7031;SDS011;3557;48.880;8.328;2022-09-03T16:13:30;1.23;;;1.00;;